sensor_id;sensor_type;location;lat;lon;timestamp;pressure;altitude;pressure_sealevel;temperature;humidity
2184;BME280;1098;48.940;8.962;2023-03-23T00:01:28;97886.53;;;14.71;100.00
2184;BME280;1098;48.940;8.962;2023-03-23T00:03:59;97890.34;;;14.75;100.00
2184;BME280;1098;48.940;8.962;2023-03-23T00:06:27;97892.25;;;14.75;100.00
2184;BME280;1098;48.940;8.962;2023-03-23T00:08:58;97889.22;;;14.66;100.00
2184;BME280;1098;48.940;8.962;2023-03-23T00:11:29;97890.63;;;14.84;100.00
2184;BME280;1098;48.940;8.962;2023-03-23T00:13:58;97882.13;;;14.55;100.00
2184;BME280;1098;48.940;8.962;2023-03-23T00:16:29;97888.13;;;14.62;100.00
2184;BME280;1098;48.940;8.962;2023-03-23T00:19:02;97886.22;;;14.53;100.00
2184;BME280;1098;48.940;8.962;2023-03-23T00:21:33;97884.31;;;14.63;100.00
2184;BME280;1098;48.940;8.962;2023-03-23T00:24:04;97884.56;;;14.52;100.00
2184;BME280;1098;48.940;8.962;2023-03-23T00:26:33;97875.31;;;14.58;100.00
2184;BME280;1098;48.940;8.962;2023-03-23T00:29:02;97871.25;;;14.55;100.00
2184;BME280;1098;48.940;8.962;2023-03-23T00:31:30;97854.41;;;14.53;100.00
2184;BME280;1098;48.940;8.962;2023-03-23T00:34:00;97867.47;;;14.66;100.00
2184;BME280;1098;48.940;8.962;2023-03-23T00:36:30;97858.78;;;14.64;100.00
2184;BME280;1098;48.940;8.962;2023-03-23T00:38:59;97854.66;;;14.52;100.00
2184;BME280;1098;48.940;8.962;2023-03-23T00:41:27;97853.59;;;14.63;100.00
2184;BME280;1098;48.940;8.962;2023-03-23T00:43:56;97840.00;;;14.63;100.00
2184;BME280;1098;48.940;8.962;2023-03-23T00:46:26;97835.38;;;14.63;100.00
2184;BME280;1098;48.940;8.962;2023-03-23T00:48:54;97824.47;;;14.43;100.00
2184;BME280;1098;48.940;8.962;2023-03-23T00:51:24;97832.91;;;14.47;100.00
2184;BME280;1098;48.940;8.962;2023-03-23T00:53:51;97832.09;;;14.46;100.00
2184;BME280;1098;48.940;8.962;2023-03-23T00:56:18;97838.31;;;14.41;100.00
2184;BME280;1098;48.940;8.962;2023-03-23T00:58:46;97833.13;;;14.40;100.00
2184;BME280;1098;48.940;8.962;2023-03-23T01:01:13;97825.22;;;14.38;100.00
2184;BME280;1098;48.940;8.962;2023-03-23T01:03:40;97835.63;;;14.47;100.00
2184;BME280;1098;48.940;8.962;2023-03-23T01:06:09;97842.44;;;14.59;100.00
2184;BME280;1098;48.940;8.962;2023-03-23T01:08:43;97831.00;;;14.47;100.00
2184;BME280;1098;48.940;8.962;2023-03-23T01:11:13;97836.47;;;14.52;100.00
2184;BME280;1098;48.940;8.962;2023-03-23T01:13:41;97834.25;;;14.44;100.00
2184;BME280;1098;48.940;8.962;2023-03-23T01:16:10;97823.31;;;14.39;100.00
2184;BME280;1098;48.940;8.962;2023-03-23T01:18:38;97811.63;;;14.38;100.00
2184;BME280;1098;48.940;8.962;2023-03-23T01:21:06;97817.59;;;14.25;100.00
2184;BME280;1098;48.940;8.962;2023-03-23T01:23:34;97814.06;;;14.30;100.00
2184;BME280;1098;48.940;8.962;2023-03-23T01:26:05;97824.69;;;14.36;100.00
2184;BME280;1098;48.940;8.962;2023-03-23T01:28:33;97816.47;;;14.21;100.00
2184;BME280;1098;48.940;8.962;2023-03-23T01:31:02;97801.00;;;14.22;100.00
2184;BME280;1098;48.940;8.962;2023-03-23T01:33:30;97807.22;;;14.17;100.00
2184;BME280;1098;48.940;8.962;2023-03-23T01:36:01;97801.00;;;14.22;100.00
2184;BME280;1098;48.940;8.962;2023-03-23T01:38:29;97803.13;;;14.15;100.00
2184;BME280;1098;48.940;8.962;2023-03-23T01:40:56;97801.22;;;14.15;100.00
2184;BME280;1098;48.940;8.962;2023-03-23T01:43:25;97792.75;;;13.96;100.00
2184;BME280;1098;48.940;8.962;2023-03-23T01:45:52;97784.88;;;13.95;100.00
2184;BME280;1098;48.940;8.962;2023-03-23T01:48:23;97792.19;;;13.94;100.00
2184;BME280;1098;48.940;8.962;2023-03-23T01:50:56;97796.03;;;14.03;100.00
2184;BME280;1098;48.940;8.962;2023-03-23T01:53:30;97779.13;;;13.81;100.00
2184;BME280;1098;48.940;8.962;2023-03-23T01:55:59;97791.66;;;13.92;100.00
2184;BME280;1098;48.940;8.962;2023-03-23T01:58:31;97799.56;;;14.04;100.00
2184;BME280;1098;48.940;8.962;2023-03-23T02:01:03;97790.56;;;13.88;100.00
2184;BME280;1098;48.940;8.962;2023-03-23T02:03:31;97792.97;;;13.85;100.00
2184;BME280;1098;48.940;8.962;2023-03-23T02:05:59;97788.34;;;13.80;100.00
2184;BME280;1098;48.940;8.962;2023-03-23T02:08:39;97792.38;;;13.72;100.00
2184;BME280;1098;48.940;8.962;2023-03-23T02:11:12;97786.41;;;13.70;100.00
2184;BME280;1098;48.940;8.962;2023-03-23T02:13:41;97785.06;;;13.78;100.00
2184;BME280;1098;48.940;8.962;2023-03-23T02:16:16;97780.16;;;13.70;100.00
2184;BME280;1098;48.940;8.962;2023-03-23T02:18:53;97783.41;;;13.67;100.00
2184;BME280;1098;48.940;8.962;2023-03-23T02:21:44;97781.41;;;13.47;100.00
2184;BME280;1098;48.940;8.962;2023-03-23T02:24:32;97780.38;;;13.63;100.00
2184;BME280;1098;48.940;8.962;2023-03-23T02:27:08;97782.28;;;13.63;100.00
2184;BME280;1098;48.940;8.962;2023-03-23T02:30:12;97766.28;;;13.66;100.00
2184;BME280;1098;48.940;8.962;2023-03-23T02:32:56;97758.97;;;13.72;100.00
2184;BME280;1098;48.940;8.962;2023-03-23T02:35:34;97756.19;;;13.57;100.00
2184;BME280;1098;48.940;8.962;2023-03-23T02:38:07;97761.09;;;13.60;100.00
2184;BME280;1098;48.940;8.962;2023-03-23T02:40:39;97740.50;;;13.64;100.00
2184;BME280;1098;48.940;8.962;2023-03-23T02:43:09;97746.41;;;13.56;100.00
2184;BME280;1098;48.940;8.962;2023-03-23T02:45:39;97738.34;;;13.71;100.00
2184;BME280;1098;48.940;8.962;2023-03-23T02:48:09;97729.69;;;13.79;100.00
2184;BME280;1098;48.940;8.962;2023-03-23T02:50:42;97739.66;;;13.63;100.00
2184;BME280;1098;48.940;8.962;2023-03-23T02:53:16;97744.28;;;13.63;100.00
2184;BME280;1098;48.940;8.962;2023-03-23T02:55:45;97732.91;;;13.66;100.00
2184;BME280;1098;48.940;8.962;2023-03-23T02:58:18;97728.88;;;13.79;100.00
2184;BME280;1098;48.940;8.962;2023-03-23T03:00:48;97728.06;;;13.78;100.00
2184;BME280;1098;48.940;8.962;2023-03-23T03:03:18;97729.41;;;13.81;100.00
2184;BME280;1098;48.940;8.962;2023-03-23T03:05:54;97723.44;;;13.79;100.00
2184;BME280;1098;48.940;8.962;2023-03-23T03:08:30;97727.22;;;13.67;100.00
2184;BME280;1098;48.940;8.962;2023-03-23T03:11:08;97718.25;;;13.72;100.00
2184;BME280;1098;48.940;8.962;2023-03-23T03:13:45;97725.56;;;13.66;100.00
2184;BME280;1098;48.940;8.962;2023-03-23T03:16:22;97720.19;;;13.82;100.00
2184;BME280;1098;48.940;8.962;2023-03-23T03:18:56;97717.25;;;13.88;100.00
2184;BME280;1098;48.940;8.962;2023-03-23T03:21:28;97716.72;;;13.91;100.00
2184;BME280;1098;48.940;8.962;2023-03-23T03:24:00;97719.41;;;13.91;100.00
2184;BME280;1098;48.940;8.962;2023-03-23T03:26:30;97722.13;;;13.86;100.00
2184;BME280;1098;48.940;8.962;2023-03-23T03:29:21;97728.59;;;13.70;100.00
2184;BME280;1098;48.940;8.962;2023-03-23T03:31:54;97730.72;;;13.63;100.00
2184;BME280;1098;48.940;8.962;2023-03-23T03:34:25;97726.69;;;13.81;100.00
2184;BME280;1098;48.940;8.962;2023-03-23T03:36:56;97721.47;;;13.64;100.00
2184;BME280;1098;48.940;8.962;2023-03-23T03:39:26;97718.78;;;13.64;100.00
2184;BME280;1098;48.940;8.962;2023-03-23T03:41:55;97715.81;;;13.70;100.00
2184;BME280;1098;48.940;8.962;2023-03-23T03:44:22;97709.88;;;13.84;100.00
2184;BME280;1098;48.940;8.962;2023-03-23T03:46:49;97709.31;;;13.71;100.00
2184;BME280;1098;48.940;8.962;2023-03-23T03:49:17;97720.88;;;13.52;100.00
2184;BME280;1098;48.940;8.962;2023-03-23T03:51:45;97725.56;;;13.66;100.00
2184;BME280;1098;48.940;8.962;2023-03-23T03:54:20;97721.00;;;13.82;100.00
2184;BME280;1098;48.940;8.962;2023-03-23T03:56:47;97723.09;;;13.60;100.00
2184;BME280;1098;48.940;8.962;2023-03-23T03:59:44;97724.28;;;13.94;100.00
2184;BME280;1098;48.940;8.962;2023-03-23T04:02:41;97706.88;;;13.80;100.00
2184;BME280;1098;48.940;8.962;2023-03-23T04:05:10;97715.59;;;13.87;100.00
2184;BME280;1098;48.940;8.962;2023-03-23T04:07:40;97720.69;;;13.73;100.00
2184;BME280;1098;48.940;8.962;2023-03-23T04:10:10;97712.03;;;13.82;100.00
2184;BME280;1098;48.940;8.962;2023-03-23T04:12:41;97716.19;;;14.04;100.00
2184;BME280;1098;48.940;8.962;2023-03-23T04:15:44;97710.72;;;13.99;100.00
2184;BME280;1098;48.940;8.962;2023-03-23T04:18:13;97718.34;;;14.02;100.00
2184;BME280;1098;48.940;8.962;2023-03-23T04:20:45;97723.81;;;14.07;100.00
2184;BME280;1098;48.940;8.962;2023-03-23T04:23:17;97715.38;;;14.09;100.00
2184;BME280;1098;48.940;8.962;2023-03-23T04:25:49;97715.94;;;14.21;100.00
2184;BME280;1098;48.940;8.962;2023-03-23T04:28:17;97715.13;;;14.10;100.00
2184;BME280;1098;48.940;8.962;2023-03-23T04:31:09;97709.09;;;13.98;100.00
2184;BME280;1098;48.940;8.962;2023-03-23T04:33:42;97721.63;;;14.04;100.00
2184;BME280;1098;48.940;8.962;2023-03-23T04:36:10;97724.91;;;14.17;100.00
2184;BME280;1098;48.940;8.962;2023-03-23T04:38:38;97724.09;;;14.21;100.00
2184;BME280;1098;48.940;8.962;2023-03-23T04:41:15;97718.09;;;14.14;100.00
2184;BME280;1098;48.940;8.962;2023-03-23T04:43:53;97725.72;;;14.12;100.00
2184;BME280;1098;48.940;8.962;2023-03-23T04:46:34;97724.06;;;14.16;100.00
2184;BME280;1098;48.940;8.962;2023-03-23T04:49:07;97739.00;;;14.03;100.00
2184;BME280;1098;48.940;8.962;2023-03-23T04:51:38;97730.31;;;14.06;100.00
2184;BME280;1098;48.940;8.962;2023-03-23T04:54:22;97727.63;;;14.17;100.00
2184;BME280;1098;48.940;8.962;2023-03-23T04:56:55;97729.53;;;14.11;100.00
2184;BME280;1098;48.940;8.962;2023-03-23T04:59:25;97724.63;;;14.18;100.00
2184;BME280;1098;48.940;8.962;2023-03-23T05:02:04;97731.97;;;14.23;100.00
2184;BME280;1098;48.940;8.962;2023-03-23T05:04:32;97724.88;;;14.06;100.00
2184;BME280;1098;48.940;8.962;2023-03-23T05:07:08;97728.22;;;14.34;100.00
2184;BME280;1098;48.940;8.962;2023-03-23T05:09:41;97725.19;;;14.20;100.00
2184;BME280;1098;48.940;8.962;2023-03-23T05:12:10;97723.53;;;14.14;100.00
2184;BME280;1098;48.940;8.962;2023-03-23T05:14:49;97729.53;;;14.21;100.00
2184;BME280;1098;48.940;8.962;2023-03-23T05:17:19;97733.63;;;14.24;100.00
2184;BME280;1098;48.940;8.962;2023-03-23T05:19:49;97738.47;;;14.17;100.00
2184;BME280;1098;48.940;8.962;2023-03-23T05:22:40;97728.47;;;14.27;100.00
2184;BME280;1098;48.940;8.962;2023-03-23T05:25:08;97738.75;;;14.20;100.00
2184;BME280;1098;48.940;8.962;2023-03-23T05:27:40;97739.88;;;14.29;100.00
2184;BME280;1098;48.940;8.962;2023-03-23T05:30:23;97735.78;;;14.22;100.00
2184;BME280;1098;48.940;8.962;2023-03-23T05:32:52;97726.25;;;14.14;100.00
2184;BME280;1098;48.940;8.962;2023-03-23T05:35:42;97730.59;;;14.15;100.00
2184;BME280;1098;48.940;8.962;2023-03-23T05:38:09;97734.19;;;14.31;100.00
2184;BME280;1098;48.940;8.962;2023-03-23T05:40:39;97732.00;;;14.33;100.00
2184;BME280;1098;48.940;8.962;2023-03-23T05:43:17;97736.56;;;14.07;100.00
2184;BME280;1098;48.940;8.962;2023-03-23T05:45:56;97743.91;;;14.06;100.00
2184;BME280;1098;48.940;8.962;2023-03-23T05:48:23;97746.09;;;14.09;100.00
2184;BME280;1098;48.940;8.962;2023-03-23T05:50:50;97748.28;;;14.23;100.00
2184;BME280;1098;48.940;8.962;2023-03-23T05:53:21;97761.25;;;14.00;100.00
2184;BME280;1098;48.940;8.962;2023-03-23T05:55:49;97754.75;;;14.01;100.00
2184;BME280;1098;48.940;8.962;2023-03-23T05:58:32;97763.94;;;13.95;100.00
2184;BME280;1098;48.940;8.962;2023-03-23T06:00:59;97762.31;;;13.89;100.00
2184;BME280;1098;48.940;8.962;2023-03-23T06:03:29;97761.09;;;14.32;100.00
2184;BME280;1098;48.940;8.962;2023-03-23T06:06:09;97769.13;;;13.97;100.00
2184;BME280;1098;48.940;8.962;2023-03-23T06:08:51;97781.47;;;14.30;100.00
2184;BME280;1098;48.940;8.962;2023-03-23T06:11:29;97786.25;;;14.02;100.00
2184;BME280;1098;48.940;8.962;2023-03-23T06:14:24;97790.56;;;13.93;100.00
2184;BME280;1098;48.940;8.962;2023-03-23T06:16:52;97802.63;;;14.13;100.00
2184;BME280;1098;48.940;8.962;2023-03-23T06:19:19;97804.22;;;14.08;100.00
2184;BME280;1098;48.940;8.962;2023-03-23T06:21:57;97800.16;;;14.11;100.00
2184;BME280;1098;48.940;8.962;2023-03-23T06:24:51;97801.50;;;14.08;100.00
2184;BME280;1098;48.940;8.962;2023-03-23T06:27:25;97817.00;;;14.08;100.00
2184;BME280;1098;48.940;8.962;2023-03-23T06:29:55;97819.38;;;13.99;100.00
2184;BME280;1098;48.940;8.962;2023-03-23T06:32:25;97824.03;;;14.04;100.00
2184;BME280;1098;48.940;8.962;2023-03-23T06:34:54;97826.75;;;14.04;100.00
2184;BME280;1098;48.940;8.962;2023-03-23T06:37:28;97813.47;;;14.18;100.00
2184;BME280;1098;48.940;8.962;2023-03-23T06:40:06;97819.47;;;14.20;100.00
2184;BME280;1098;48.940;8.962;2023-03-23T06:42:39;97820.13;;;14.47;100.00
2184;BME280;1098;48.940;8.962;2023-03-23T06:45:26;97814.97;;;14.51;100.00
2184;BME280;1098;48.940;8.962;2023-03-23T06:48:13;97821.00;;;14.83;100.00
2184;BME280;1098;48.940;8.962;2023-03-23T06:50:42;97806.84;;;14.71;100.00
2184;BME280;1098;48.940;8.962;2023-03-23T06:53:11;97822.34;;;14.70;100.00
2184;BME280;1098;48.940;8.962;2023-03-23T06:55:38;97816.38;;;14.84;100.00
2184;BME280;1098;48.940;8.962;2023-03-23T06:58:06;97820.13;;;14.57;100.00
2184;BME280;1098;48.940;8.962;2023-03-23T07:00:35;97822.91;;;14.88;100.00
2184;BME280;1098;48.940;8.962;2023-03-23T07:03:03;97836.78;;;15.06;100.00
2184;BME280;1098;48.940;8.962;2023-03-23T07:05:32;97833.78;;;14.72;100.00
2184;BME280;1098;48.940;8.962;2023-03-23T07:07:59;97845.16;;;14.59;100.00
2184;BME280;1098;48.940;8.962;2023-03-23T07:10:31;97843.56;;;14.68;100.00
2184;BME280;1098;48.940;8.962;2023-03-23T07:13:00;97844.31;;;14.49;100.00
2184;BME280;1098;48.940;8.962;2023-03-23T07:15:36;97856.84;;;14.50;100.00
2184;BME280;1098;48.940;8.962;2023-03-23T07:18:04;97859.81;;;14.43;100.00
2184;BME280;1098;48.940;8.962;2023-03-23T07:20:37;97857.63;;;14.45;100.00
2184;BME280;1098;48.940;8.962;2023-03-23T07:23:05;97880.22;;;14.51;100.00
2184;BME280;1098;48.940;8.962;2023-03-23T07:25:42;97878.09;;;14.73;100.00
2184;BME280;1098;48.940;8.962;2023-03-23T07:28:15;97890.97;;;14.35;100.00
2184;BME280;1098;48.940;8.962;2023-03-23T07:30:44;97886.38;;;14.31;100.00
2184;BME280;1098;48.940;8.962;2023-03-23T07:33:11;97890.53;;;14.49;100.00
2184;BME280;1098;48.940;8.962;2023-03-23T07:35:40;97887.91;;;14.74;100.00
2184;BME280;1098;48.940;8.962;2023-03-23T07:38:10;97900.69;;;14.78;100.00
2184;BME280;1098;48.940;8.962;2023-03-23T07:40:38;97900.19;;;15.02;100.00
2184;BME280;1098;48.940;8.962;2023-03-23T07:43:15;97893.69;;;15.13;100.00
2184;BME280;1098;48.940;8.962;2023-03-23T07:46:07;97893.41;;;15.40;100.00
2184;BME280;1098;48.940;8.962;2023-03-23T07:48:45;97898.03;;;15.44;100.00
2184;BME280;1098;48.940;8.962;2023-03-23T07:51:17;97898.03;;;15.39;100.00
2184;BME280;1098;48.940;8.962;2023-03-23T07:53:49;97898.56;;;15.21;100.00
2184;BME280;1098;48.940;8.962;2023-03-23T07:56:36;97906.72;;;14.96;100.00
2184;BME280;1098;48.940;8.962;2023-03-23T07:59:22;97907.28;;;15.13;100.00
2184;BME280;1098;48.940;8.962;2023-03-23T08:01:51;97908.94;;;15.55;100.00
2184;BME280;1098;48.940;8.962;2023-03-23T08:04:24;97910.84;;;15.49;100.00
2184;BME280;1098;48.940;8.962;2023-03-23T08:07:22;97914.91;;;15.31;100.00
2184;BME280;1098;48.940;8.962;2023-03-23T08:10:00;97912.44;;;15.09;100.00
2184;BME280;1098;48.940;8.962;2023-03-23T08:12:57;97911.88;;;15.02;100.00
2184;BME280;1098;48.940;8.962;2023-03-23T08:16:00;97911.66;;;15.50;100.00
2184;BME280;1098;48.940;8.962;2023-03-23T08:18:50;97924.44;;;15.13;100.00
2184;BME280;1098;48.940;8.962;2023-03-23T08:21:35;97910.25;;;15.01;100.00
2184;BME280;1098;48.940;8.962;2023-03-23T08:24:28;97919.75;;;14.99;100.00
2184;BME280;1098;48.940;8.962;2023-03-23T08:27:03;97921.09;;;14.86;100.00
2184;BME280;1098;48.940;8.962;2023-03-23T08:29:59;97902.59;;;14.73;100.00
2184;BME280;1098;48.940;8.962;2023-03-23T08:32:45;97914.22;;;14.58;100.00
2184;BME280;1098;48.940;8.962;2023-03-23T08:35:33;97920.47;;;14.54;100.00
2184;BME280;1098;48.940;8.962;2023-03-23T08:38:27;97911.94;;;14.40;100.00
2184;BME280;1098;48.940;8.962;2023-03-23T08:41:17;97912.72;;;14.30;100.00
2184;BME280;1098;48.940;8.962;2023-03-23T08:44:03;97923.72;;;14.56;100.00
2184;BME280;1098;48.940;8.962;2023-03-23T08:46:50;97920.69;;;14.42;100.00
2184;BME280;1098;48.940;8.962;2023-03-23T08:49:36;97926.44;;;14.51;100.00
2184;BME280;1098;48.940;8.962;2023-03-23T08:52:41;97930.22;;;14.44;100.00
2184;BME280;1098;48.940;8.962;2023-03-23T08:55:29;97926.78;;;14.74;100.00
2184;BME280;1098;48.940;8.962;2023-03-23T08:58:20;97926.53;;;14.86;100.00
2184;BME280;1098;48.940;8.962;2023-03-23T09:01:07;97921.91;;;14.87;100.00
2184;BME280;1098;48.940;8.962;2023-03-23T09:03:44;97928.94;;;14.67;100.00
2184;BME280;1098;48.940;8.962;2023-03-23T09:06:26;97928.44;;;14.75;100.00
2184;BME280;1098;48.940;8.962;2023-03-23T09:08:55;97935.22;;;14.78;100.00
2184;BME280;1098;48.940;8.962;2023-03-23T09:11:22;97939.91;;;15.03;100.00
2184;BME280;1098;48.940;8.962;2023-03-23T09:13:50;97940.03;;;14.51;100.00
2184;BME280;1098;48.940;8.962;2023-03-23T09:16:18;97946.34;;;14.76;100.00
2184;BME280;1098;48.940;8.962;2023-03-23T09:18:45;97946.91;;;14.73;100.00
2184;BME280;1098;48.940;8.962;2023-03-23T09:21:13;97962.22;;;15.00;100.00
2184;BME280;1098;48.940;8.962;2023-03-23T09:23:40;97972.59;;;14.40;100.00
2184;BME280;1098;48.940;8.962;2023-03-23T09:26:11;97979.03;;;14.29;100.00
2184;BME280;1098;48.940;8.962;2023-03-23T09:28:38;97981.56;;;14.41;100.00
2184;BME280;1098;48.940;8.962;2023-03-23T09:31:06;97981.97;;;14.23;100.00
2184;BME280;1098;48.940;8.962;2023-03-23T09:33:33;97983.03;;;14.64;100.00
2184;BME280;1098;48.940;8.962;2023-03-23T09:36:01;97973.91;;;14.95;100.00
2184;BME280;1098;48.940;8.962;2023-03-23T09:38:30;97967.09;;;14.93;100.00
2184;BME280;1098;48.940;8.962;2023-03-23T09:41:06;97972.53;;;14.98;100.00
2184;BME280;1098;48.940;8.962;2023-03-23T09:43:49;97976.91;;;15.04;100.00
2184;BME280;1098;48.940;8.962;2023-03-23T09:46:35;97972.84;;;14.96;100.00
2184;BME280;1098;48.940;8.962;2023-03-23T09:49:09;97987.06;;;15.34;100.00
2184;BME280;1098;48.940;8.962;2023-03-23T09:51:42;97989.47;;;15.15;100.00
2184;BME280;1098;48.940;8.962;2023-03-23T09:54:16;97999.00;;;15.23;100.00
2184;BME280;1098;48.940;8.962;2023-03-23T09:56:45;98000.63;;;15.19;100.00
2184;BME280;1098;48.940;8.962;2023-03-23T09:59:19;97995.91;;;14.89;100.00
2184;BME280;1098;48.940;8.962;2023-03-23T10:01:48;98004.44;;;15.18;100.00
2184;BME280;1098;48.940;8.962;2023-03-23T10:04:24;98002.25;;;15.09;100.00
2184;BME280;1098;48.940;8.962;2023-03-23T10:06:57;98005.78;;;15.10;100.00
2184;BME280;1098;48.940;8.962;2023-03-23T10:09:26;98003.47;;;14.76;100.00
2184;BME280;1098;48.940;8.962;2023-03-23T10:12:06;97998.63;;;14.84;100.00
2184;BME280;1098;48.940;8.962;2023-03-23T10:14:52;97983.59;;;14.66;100.00
2184;BME280;1098;48.940;8.962;2023-03-23T10:17:27;98000.78;;;14.82;100.00
2184;BME280;1098;48.940;8.962;2023-03-23T10:20:03;98002.00;;;15.16;100.00
2184;BME280;1098;48.940;8.962;2023-03-23T10:22:40;98011.22;;;15.10;100.00
2184;BME280;1098;48.940;8.962;2023-03-23T10:25:18;98002.59;;;15.48;100.00
2184;BME280;1098;48.940;8.962;2023-03-23T10:27:50;98004.81;;;15.67;100.00
2184;BME280;1098;48.940;8.962;2023-03-23T10:30:24;98008.56;;;15.40;100.00
2184;BME280;1098;48.940;8.962;2023-03-23T10:32:57;98003.47;;;15.74;100.00
2184;BME280;1098;48.940;8.962;2023-03-23T10:35:29;98008.66;;;15.96;100.00
2184;BME280;1098;48.940;8.962;2023-03-23T10:38:01;98013.28;;;15.91;100.00
2184;BME280;1098;48.940;8.962;2023-03-23T10:40:30;98006.38;;;16.49;100.00
2184;BME280;1098;48.940;8.962;2023-03-23T10:42:58;98007.00;;;16.15;100.00
2184;BME280;1098;48.940;8.962;2023-03-23T10:45:28;98004.78;;;16.33;100.00
2184;BME280;1098;48.940;8.962;2023-03-23T10:48:04;98001.56;;;15.85;100.00
2184;BME280;1098;48.940;8.962;2023-03-23T10:50:36;97999.38;;;15.77;100.00
2184;BME280;1098;48.940;8.962;2023-03-23T10:53:13;98001.28;;;15.81;100.00
2184;BME280;1098;48.940;8.962;2023-03-23T10:55:43;98000.75;;;15.90;100.00
2184;BME280;1098;48.940;8.962;2023-03-23T10:58:12;97997.69;;;15.51;100.00
2184;BME280;1098;48.940;8.962;2023-03-23T11:00:44;97991.38;;;15.20;100.00
2184;BME280;1098;48.940;8.962;2023-03-23T11:03:25;97992.22;;;15.30;100.00
2184;BME280;1098;48.940;8.962;2023-03-23T11:05:56;97982.41;;;15.14;100.00
2184;BME280;1098;48.940;8.962;2023-03-23T11:08:26;97993.34;;;15.50;100.00
2184;BME280;1098;48.940;8.962;2023-03-23T11:10:56;97994.47;;;15.69;100.00
2184;BME280;1098;48.940;8.962;2023-03-23T11:13:30;97993.88;;;15.31;100.00
2184;BME280;1098;48.940;8.962;2023-03-23T11:15:59;97974.56;;;15.53;100.00
2184;BME280;1098;48.940;8.962;2023-03-23T11:18:37;97984.69;;;15.58;100.00
2184;BME280;1098;48.940;8.962;2023-03-23T11:21:06;97986.81;;;15.51;100.00
2184;BME280;1098;48.940;8.962;2023-03-23T11:23:36;97987.34;;;15.47;100.00
2184;BME280;1098;48.940;8.962;2023-03-23T11:26:11;97987.09;;;15.79;100.00
2184;BME280;1098;48.940;8.962;2023-03-23T11:28:43;97995.47;;;16.44;100.00
2184;BME280;1098;48.940;8.962;2023-03-23T11:31:13;97993.94;;;15.92;100.00
2184;BME280;1098;48.940;8.962;2023-03-23T11:33:52;97995.84;;;15.97;100.00
2184;BME280;1098;48.940;8.962;2023-03-23T11:36:21;97994.72;;;16.03;100.00
2184;BME280;1098;48.940;8.962;2023-03-23T11:38:55;97992.41;;;16.81;100.00
2184;BME280;1098;48.940;8.962;2023-03-23T11:41:32;97992.78;;;16.29;100.00
2184;BME280;1098;48.940;8.962;2023-03-23T11:44:07;97998.69;;;16.71;100.00
2184;BME280;1098;48.940;8.962;2023-03-23T11:46:42;98009.34;;;16.73;100.00
2184;BME280;1098;48.940;8.962;2023-03-23T11:49:20;98009.41;;;16.22;100.00
2184;BME280;1098;48.940;8.962;2023-03-23T11:51:50;98000.97;;;16.34;100.00
2184;BME280;1098;48.940;8.962;2023-03-23T11:54:29;98008.31;;;16.28;100.00
2184;BME280;1098;48.940;8.962;2023-03-23T11:56:57;98004.53;;;16.19;100.00
2184;BME280;1098;48.940;8.962;2023-03-23T11:59:27;98008.25;;;16.64;100.00
2184;BME280;1098;48.940;8.962;2023-03-23T12:02:05;98008.59;;;16.32;100.00
2184;BME280;1098;48.940;8.962;2023-03-23T12:04:50;98007.78;;;16.21;100.00
2184;BME280;1098;48.940;8.962;2023-03-23T12:07:45;98014.63;;;16.13;100.00
2184;BME280;1098;48.940;8.962;2023-03-23T12:10:24;98009.41;;;16.22;100.00
2184;BME280;1098;48.940;8.962;2023-03-23T12:13:02;98007.53;;;16.07;100.00
2184;BME280;1098;48.940;8.962;2023-03-23T12:15:34;98006.38;;;16.49;100.00
2184;BME280;1098;48.940;8.962;2023-03-23T12:18:14;98001.63;;;16.85;100.00
2184;BME280;1098;48.940;8.962;2023-03-23T12:20:53;98005.75;;;16.82;100.00
2184;BME280;1098;48.940;8.962;2023-03-23T12:23:25;97991.78;;;16.94;100.00
2184;BME280;1098;48.940;8.962;2023-03-23T12:26:18;98000.97;;;17.08;100.00
2184;BME280;1098;48.940;8.962;2023-03-23T12:29:03;97986.13;;;16.75;100.00
2184;BME280;1098;48.940;8.962;2023-03-23T12:31:38;97979.00;;;17.34;100.00
2184;BME280;1098;48.940;8.962;2023-03-23T12:34:18;97986.03;;;16.96;100.00
2184;BME280;1098;48.940;8.962;2023-03-23T12:37:01;97977.13;;;16.80;100.00
2184;BME280;1098;48.940;8.962;2023-03-23T12:40:02;97973.03;;;16.82;100.00
2184;BME280;1098;48.940;8.962;2023-03-23T12:42:42;97972.03;;;17.51;100.00
2184;BME280;1098;48.940;8.962;2023-03-23T12:45:19;97969.75;;;16.75;100.00
2184;BME280;1098;48.940;8.962;2023-03-23T12:47:52;97963.78;;;16.68;100.00
2184;BME280;1098;48.940;8.962;2023-03-23T12:50:27;97973.03;;;16.82;100.00
2184;BME280;1098;48.940;8.962;2023-03-23T12:53:00;97949.72;;;16.26;100.00
2184;BME280;1098;48.940;8.962;2023-03-23T12:55:34;97966.81;;;17.16;100.00
2184;BME280;1098;48.940;8.962;2023-03-23T12:58:05;97958.56;;;17.26;100.00
2184;BME280;1098;48.940;8.962;2023-03-23T13:00:52;97961.03;;;16.73;100.00
2184;BME280;1098;48.940;8.962;2023-03-23T13:03:25;97948.78;;;17.20;100.00
2184;BME280;1098;48.940;8.962;2023-03-23T13:06:04;97953.94;;;16.77;100.00
2184;BME280;1098;48.940;8.962;2023-03-23T13:08:36;97939.00;;;16.49;100.00
2184;BME280;1098;48.940;8.962;2023-03-23T13:11:10;97936.56;;;16.43;100.00
2184;BME280;1098;48.940;8.962;2023-03-23T13:13:44;97940.59;;;16.71;100.00
2184;BME280;1098;48.940;8.962;2023-03-23T13:16:19;97921.63;;;16.35;100.00
2184;BME280;1098;48.940;8.962;2023-03-23T13:18:57;97923.38;;;16.80;100.00
2184;BME280;1098;48.940;8.962;2023-03-23T13:21:30;97928.56;;;16.77;100.00
2184;BME280;1098;48.940;8.962;2023-03-23T13:24:01;97929.59;;;16.86;100.00
2184;BME280;1098;48.940;8.962;2023-03-23T13:26:31;97922.78;;;16.83;100.00
2184;BME280;1098;48.940;8.962;2023-03-23T13:29:00;97911.69;;;16.65;100.00
2184;BME280;1098;48.940;8.962;2023-03-23T13:31:31;97912.28;;;16.46;100.00
2184;BME280;1098;48.940;8.962;2023-03-23T13:34:03;97904.25;;;16.80;100.00
2184;BME280;1098;48.940;8.962;2023-03-23T13:36:35;97903.88;;;16.97;100.00
2184;BME280;1098;48.940;8.962;2023-03-23T13:39:05;97914.13;;;16.71;100.00
2184;BME280;1098;48.940;8.962;2023-03-23T13:41:46;97917.75;;;16.46;100.00
2184;BME280;1098;48.940;8.962;2023-03-23T13:44:20;97916.16;;;16.35;100.00
2184;BME280;1098;48.940;8.962;2023-03-23T13:46:56;97909.88;;;16.35;100.00
2184;BME280;1098;48.940;8.962;2023-03-23T13:49:25;97910.88;;;16.59;100.00